sensor_id;sensor_type;location;lat;lon;timestamp;P1;durP1;ratioP1;P2;durP2;ratioP2
70588;SDS011;58152;49.202;18.744;2023-05-10T00:01:46;3.95;;;3.05;;
70588;SDS011;58152;49.202;18.744;2023-05-10T00:04:12;5.95;;;2.60;;
70588;SDS011;58152;49.202;18.744;2023-05-10T00:06:37;4.47;;;3.00;;
70588;SDS011;58152;49.202;18.744;2023-05-10T00:09:03;4.63;;;3.17;;
70588;SDS011;58152;49.202;18.744;2023-05-10T00:11:28;5.47;;;3.20;;
70588;SDS011;58152;49.202;18.744;2023-05-10T00:13:54;4.70;;;3.40;;
70588;SDS011;58152;49.202;18.744;2023-05-10T00:16:20;4.80;;;3.30;;
70588;SDS011;58152;49.202;18.744;2023-05-10T00:18:45;3.45;;;2.67;;
70588;SDS011;58152;49.202;18.744;2023-05-10T00:21:11;4.45;;;3.38;;
70588;SDS011;58152;49.202;18.744;2023-05-10T00:23:36;4.18;;;2.80;;
70588;SDS011;58152;49.202;18.744;2023-05-10T00:26:02;3.80;;;3.13;;
70588;SDS011;58152;49.202;18.744;2023-05-10T00:28:27;4.97;;;3.30;;
70588;SDS011;58152;49.202;18.744;2023-05-10T00:30:53;6.13;;;2.95;;
70588;SDS011;58152;49.202;18.744;2023-05-10T00:33:19;4.90;;;3.13;;
70588;SDS011;58152;49.202;18.744;2023-05-10T00:35:44;4.53;;;3.35;;
70588;SDS011;58152;49.202;18.744;2023-05-10T00:38:10;2.80;;;2.20;;
70588;SDS011;58152;49.202;18.744;2023-05-10T00:40:36;4.68;;;3.35;;
70588;SDS011;58152;49.202;18.744;2023-05-10T00:43:02;4.80;;;2.55;;
70588;SDS011;58152;49.202;18.744;2023-05-10T00:45:28;4.18;;;3.25;;
70588;SDS011;58152;49.202;18.744;2023-05-10T00:47:55;5.07;;;3.33;;
70588;SDS011;58152;49.202;18.744;2023-05-10T00:50:24;5.43;;;3.15;;
70588;SDS011;58152;49.202;18.744;2023-05-10T00:52:49;3.88;;;3.28;;
70588;SDS011;58152;49.202;18.744;2023-05-10T00:55:15;5.75;;;4.07;;
70588;SDS011;58152;49.202;18.744;2023-05-10T00:57:41;4.80;;;3.75;;
70588;SDS011;58152;49.202;18.744;2023-05-10T01:00:07;5.68;;;3.83;;
70588;SDS011;58152;49.202;18.744;2023-05-10T01:02:33;5.75;;;3.60;;
70588;SDS011;58152;49.202;18.744;2023-05-10T01:04:59;5.65;;;3.88;;
70588;SDS011;58152;49.202;18.744;2023-05-10T01:07:26;5.47;;;3.88;;
70588;SDS011;58152;49.202;18.744;2023-05-10T01:09:54;4.65;;;3.40;;
70588;SDS011;58152;49.202;18.744;2023-05-10T01:12:20;6.32;;;3.67;;
70588;SDS011;58152;49.202;18.744;2023-05-10T01:14:46;5.80;;;3.17;;
70588;SDS011;58152;49.202;18.744;2023-05-10T01:17:12;5.22;;;3.15;;
70588;SDS011;58152;49.202;18.744;2023-05-10T01:19:38;4.97;;;3.47;;
70588;SDS011;58152;49.202;18.744;2023-05-10T01:22:11;7.32;;;3.42;;
70588;SDS011;58152;49.202;18.744;2023-05-10T01:36:01;5.60;;;3.58;;
70588;SDS011;58152;49.202;18.744;2023-05-10T01:38:50;6.45;;;3.20;;
70588;SDS011;58152;49.202;18.744;2023-05-10T01:44:14;6.03;;;3.63;;
70588;SDS011;58152;49.202;18.744;2023-05-10T01:47:05;5.43;;;4.20;;
70588;SDS011;58152;49.202;18.744;2023-05-10T01:49:36;5.80;;;3.85;;
70588;SDS011;58152;49.202;18.744;2023-05-10T01:52:09;6.97;;;4.28;;
70588;SDS011;58152;49.202;18.744;2023-05-10T01:54:41;5.45;;;4.07;;
70588;SDS011;58152;49.202;18.744;2023-05-10T01:57:09;5.40;;;3.38;;
70588;SDS011;58152;49.202;18.744;2023-05-10T01:59:39;5.05;;;4.40;;
70588;SDS011;58152;49.202;18.744;2023-05-10T02:02:07;4.32;;;3.40;;
70588;SDS011;58152;49.202;18.744;2023-05-10T02:04:38;5.47;;;3.42;;
70588;SDS011;58152;49.202;18.744;2023-05-10T02:07:06;4.82;;;3.80;;
70588;SDS011;58152;49.202;18.744;2023-05-10T02:09:33;5.47;;;4.07;;
70588;SDS011;58152;49.202;18.744;2023-05-10T02:12:01;5.38;;;3.80;;
70588;SDS011;58152;49.202;18.744;2023-05-10T02:14:30;6.00;;;4.07;;
70588;SDS011;58152;49.202;18.744;2023-05-10T02:16:59;7.55;;;4.50;;
70588;SDS011;58152;49.202;18.744;2023-05-10T02:19:26;4.95;;;3.78;;
70588;SDS011;58152;49.202;18.744;2023-05-10T02:21:55;6.38;;;4.47;;
70588;SDS011;58152;49.202;18.744;2023-05-10T02:24:21;6.38;;;4.13;;
70588;SDS011;58152;49.202;18.744;2023-05-10T02:26:50;7.18;;;4.47;;
70588;SDS011;58152;49.202;18.744;2023-05-10T02:29:18;6.05;;;3.75;;
70588;SDS011;58152;49.202;18.744;2023-05-10T02:31:45;5.47;;;3.58;;
70588;SDS011;58152;49.202;18.744;2023-05-10T02:34:11;6.15;;;3.92;;
70588;SDS011;58152;49.202;18.744;2023-05-10T02:36:38;5.05;;;4.05;;
70588;SDS011;58152;49.202;18.744;2023-05-10T02:39:05;6.13;;;4.30;;
70588;SDS011;58152;49.202;18.744;2023-05-10T02:41:35;7.55;;;4.22;;
70588;SDS011;58152;49.202;18.744;2023-05-10T02:44:02;6.47;;;4.70;;
70588;SDS011;58152;49.202;18.744;2023-05-10T02:46:28;5.60;;;4.20;;
70588;SDS011;58152;49.202;18.744;2023-05-10T02:48:55;4.32;;;3.45;;
70588;SDS011;58152;49.202;18.744;2023-05-10T02:51:20;5.47;;;3.42;;
70588;SDS011;58152;49.202;18.744;2023-05-10T02:53:49;6.82;;;4.38;;
70588;SDS011;58152;49.202;18.744;2023-05-10T02:56:34;5.97;;;3.72;;
70588;SDS011;58152;49.202;18.744;2023-05-10T02:59:04;5.40;;;3.83;;
70588;SDS011;58152;49.202;18.744;2023-05-10T03:01:30;5.47;;;4.05;;
70588;SDS011;58152;49.202;18.744;2023-05-10T03:03:55;8.35;;;3.78;;
70588;SDS011;58152;49.202;18.744;2023-05-10T03:06:21;5.00;;;3.65;;
70588;SDS011;58152;49.202;18.744;2023-05-10T03:08:46;7.53;;;4.32;;
70588;SDS011;58152;49.202;18.744;2023-05-10T03:16:29;4.75;;;3.53;;
70588;SDS011;58152;49.202;18.744;2023-05-10T03:21:26;4.90;;;4.03;;
70588;SDS011;58152;49.202;18.744;2023-05-10T03:23:58;5.45;;;4.15;;
70588;SDS011;58152;49.202;18.744;2023-05-10T03:26:28;3.72;;;3.35;;
70588;SDS011;58152;49.202;18.744;2023-05-10T03:28:55;5.25;;;3.83;;
70588;SDS011;58152;49.202;18.744;2023-05-10T03:31:24;5.35;;;3.17;;
70588;SDS011;58152;49.202;18.744;2023-05-10T03:33:50;4.57;;;3.70;;
70588;SDS011;58152;49.202;18.744;2023-05-10T03:36:17;4.90;;;3.53;;
70588;SDS011;58152;49.202;18.744;2023-05-10T03:38:43;5.47;;;4.07;;
70588;SDS011;58152;49.202;18.744;2023-05-10T03:41:08;105.90;;;75.57;;
70588;SDS011;58152;49.202;18.744;2023-05-10T03:43:34;144.27;;;95.10;;
70588;SDS011;58152;49.202;18.744;2023-05-10T03:46:03;52.67;;;34.30;;
70588;SDS011;58152;49.202;18.744;2023-05-10T03:48:29;22.63;;;15.05;;
70588;SDS011;58152;49.202;18.744;2023-05-10T03:50:55;11.10;;;7.82;;
70588;SDS011;58152;49.202;18.744;2023-05-10T03:53:20;8.60;;;5.88;;
70588;SDS011;58152;49.202;18.744;2023-05-10T03:55:46;5.85;;;4.72;;
70588;SDS011;58152;49.202;18.744;2023-05-10T03:58:11;8.15;;;4.43;;
70588;SDS011;58152;49.202;18.744;2023-05-10T04:00:38;5.93;;;4.20;;
70588;SDS011;58152;49.202;18.744;2023-05-10T04:03:08;6.10;;;4.30;;
70588;SDS011;58152;49.202;18.744;2023-05-10T04:08:56;6.22;;;3.65;;
70588;SDS011;58152;49.202;18.744;2023-05-10T04:11:26;6.05;;;4.00;;
70588;SDS011;58152;49.202;18.744;2023-05-10T04:13:52;4.15;;;3.20;;
70588;SDS011;58152;49.202;18.744;2023-05-10T04:16:18;7.00;;;4.68;;
70588;SDS011;58152;49.202;18.744;2023-05-10T04:19:35;6.35;;;3.90;;
70588;SDS011;58152;49.202;18.744;2023-05-10T04:22:25;5.53;;;4.88;;
70588;SDS011;58152;49.202;18.744;2023-05-10T04:24:54;5.78;;;4.15;;
70588;SDS011;58152;49.202;18.744;2023-05-10T04:27:22;7.35;;;4.25;;
70588;SDS011;58152;49.202;18.744;2023-05-10T04:29:48;6.95;;;4.18;;
70588;SDS011;58152;49.202;18.744;2023-05-10T04:32:13;5.82;;;3.92;;
70588;SDS011;58152;49.202;18.744;2023-05-10T04:34:41;5.20;;;3.72;;
70588;SDS011;58152;49.202;18.744;2023-05-10T04:37:06;7.75;;;4.75;;
70588;SDS011;58152;49.202;18.744;2023-05-10T04:39:32;6.40;;;4.63;;
70588;SDS011;58152;49.202;18.744;2023-05-10T04:41:58;7.07;;;4.15;;
70588;SDS011;58152;49.202;18.744;2023-05-10T04:44:23;9.43;;;5.03;;
70588;SDS011;58152;49.202;18.744;2023-05-10T04:46:48;5.70;;;4.30;;
70588;SDS011;58152;49.202;18.744;2023-05-10T04:49:14;6.18;;;4.07;;
70588;SDS011;58152;49.202;18.744;2023-05-10T04:51:39;7.25;;;4.55;;
70588;SDS011;58152;49.202;18.744;2023-05-10T04:54:05;5.90;;;4.00;;
70588;SDS011;58152;49.202;18.744;2023-05-10T04:56:30;5.93;;;4.03;;
70588;SDS011;58152;49.202;18.744;2023-05-10T04:58:55;5.57;;;4.03;;
70588;SDS011;58152;49.202;18.744;2023-05-10T05:01:21;7.00;;;4.35;;
70588;SDS011;58152;49.202;18.744;2023-05-10T05:03:48;6.80;;;4.63;;
70588;SDS011;58152;49.202;18.744;2023-05-10T05:06:13;6.13;;;4.90;;
70588;SDS011;58152;49.202;18.744;2023-05-10T05:08:38;6.70;;;4.63;;
70588;SDS011;58152;49.202;18.744;2023-05-10T05:11:04;7.88;;;4.80;;
70588;SDS011;58152;49.202;18.744;2023-05-10T05:13:37;7.07;;;4.70;;
70588;SDS011;58152;49.202;18.744;2023-05-10T05:16:02;8.15;;;5.30;;
70588;SDS011;58152;49.202;18.744;2023-05-10T05:18:28;6.72;;;4.88;;
70588;SDS011;58152;49.202;18.744;2023-05-10T05:20:53;8.85;;;6.13;;
70588;SDS011;58152;49.202;18.744;2023-05-10T05:23:19;6.88;;;5.63;;
70588;SDS011;58152;49.202;18.744;2023-05-10T05:25:45;8.80;;;5.63;;
70588;SDS011;58152;49.202;18.744;2023-05-10T05:28:11;8.80;;;6.10;;
70588;SDS011;58152;49.202;18.744;2023-05-10T05:30:37;9.25;;;6.25;;
70588;SDS011;58152;49.202;18.744;2023-05-10T05:33:02;11.27;;;7.18;;
70588;SDS011;58152;49.202;18.744;2023-05-10T05:35:28;8.85;;;6.60;;
70588;SDS011;58152;49.202;18.744;2023-05-10T05:37:53;10.60;;;6.65;;
70588;SDS011;58152;49.202;18.744;2023-05-10T05:40:21;12.48;;;7.00;;
70588;SDS011;58152;49.202;18.744;2023-05-10T05:42:46;9.63;;;6.95;;
70588;SDS011;58152;49.202;18.744;2023-05-10T05:45:12;10.65;;;6.80;;
70588;SDS011;58152;49.202;18.744;2023-05-10T05:47:44;7.43;;;5.93;;
70588;SDS011;58152;49.202;18.744;2023-05-10T05:50:12;7.93;;;5.53;;
70588;SDS011;58152;49.202;18.744;2023-05-10T05:52:38;9.93;;;6.07;;
70588;SDS011;58152;49.202;18.744;2023-05-10T05:55:03;9.80;;;5.45;;
70588;SDS011;58152;49.202;18.744;2023-05-10T05:57:29;7.88;;;5.55;;
70588;SDS011;58152;49.202;18.744;2023-05-10T05:59:54;6.55;;;4.75;;
70588;SDS011;58152;49.202;18.744;2023-05-10T06:02:20;7.32;;;5.05;;
70588;SDS011;58152;49.202;18.744;2023-05-10T06:04:45;8.90;;;6.03;;
70588;SDS011;58152;49.202;18.744;2023-05-10T06:07:11;6.13;;;5.20;;
70588;SDS011;58152;49.202;18.744;2023-05-10T06:09:37;8.38;;;4.93;;
70588;SDS011;58152;49.202;18.744;2023-05-10T06:12:02;7.40;;;4.97;;
70588;SDS011;58152;49.202;18.744;2023-05-10T06:14:28;6.20;;;4.57;;
70588;SDS011;58152;49.202;18.744;2023-05-10T06:16:53;8.02;;;5.30;;
70588;SDS011;58152;49.202;18.744;2023-05-10T06:19:19;7.32;;;4.60;;
70588;SDS011;58152;49.202;18.744;2023-05-10T06:21:44;7.85;;;4.85;;
70588;SDS011;58152;49.202;18.744;2023-05-10T06:24:10;10.98;;;6.32;;
70588;SDS011;58152;49.202;18.744;2023-05-10T06:26:35;8.18;;;6.30;;
70588;SDS011;58152;49.202;18.744;2023-05-10T06:29:00;11.07;;;7.80;;
70588;SDS011;58152;49.202;18.744;2023-05-10T06:31:26;11.50;;;7.60;;
70588;SDS011;58152;49.202;18.744;2023-05-10T06:33:51;10.93;;;8.27;;
70588;SDS011;58152;49.202;18.744;2023-05-10T06:36:17;8.73;;;6.20;;
70588;SDS011;58152;49.202;18.744;2023-05-10T06:38:42;8.82;;;6.00;;
70588;SDS011;58152;49.202;18.744;2023-05-10T06:41:07;9.02;;;5.72;;
70588;SDS011;58152;49.202;18.744;2023-05-10T06:43:33;8.73;;;5.32;;
70588;SDS011;58152;49.202;18.744;2023-05-10T06:45:58;7.40;;;5.60;;
70588;SDS011;58152;49.202;18.744;2023-05-10T06:48:24;6.65;;;4.47;;
70588;SDS011;58152;49.202;18.744;2023-05-10T06:50:49;6.40;;;4.28;;
70588;SDS011;58152;49.202;18.744;2023-05-10T06:53:15;4.68;;;3.53;;
70588;SDS011;58152;49.202;18.744;2023-05-10T06:55:40;6.57;;;4.80;;
70588;SDS011;58152;49.202;18.744;2023-05-10T06:58:06;4.10;;;3.25;;
70588;SDS011;58152;49.202;18.744;2023-05-10T07:00:31;4.20;;;3.13;;
70588;SDS011;58152;49.202;18.744;2023-05-10T07:02:57;2.75;;;2.28;;
70588;SDS011;58152;49.202;18.744;2023-05-10T07:05:23;2.40;;;2.20;;
70588;SDS011;58152;49.202;18.744;2023-05-10T07:07:48;2.38;;;2.17;;
70588;SDS011;58152;49.202;18.744;2023-05-10T07:10:14;2.58;;;2.38;;
70588;SDS011;58152;49.202;18.744;2023-05-10T07:12:39;4.40;;;2.45;;
70588;SDS011;58152;49.202;18.744;2023-05-10T07:15:05;2.40;;;2.17;;
70588;SDS011;58152;49.202;18.744;2023-05-10T07:17:31;2.38;;;2.17;;
70588;SDS011;58152;49.202;18.744;2023-05-10T07:19:58;2.40;;;2.20;;
70588;SDS011;58152;49.202;18.744;2023-05-10T07:22:26;3.28;;;2.60;;
70588;SDS011;58152;49.202;18.744;2023-05-10T07:24:52;3.28;;;2.75;;
70588;SDS011;58152;49.202;18.744;2023-05-10T07:27:17;3.22;;;2.47;;
70588;SDS011;58152;49.202;18.744;2023-05-10T07:29:43;3.65;;;2.20;;
70588;SDS011;58152;49.202;18.744;2023-05-10T07:32:08;2.58;;;1.60;;
70588;SDS011;58152;49.202;18.744;2023-05-10T07:34:33;4.03;;;2.53;;
70588;SDS011;58152;49.202;18.744;2023-05-10T07:36:59;2.78;;;2.08;;
70588;SDS011;58152;49.202;18.744;2023-05-10T07:39:25;2.85;;;1.88;;
70588;SDS011;58152;49.202;18.744;2023-05-10T07:41:51;1.70;;;1.60;;
70588;SDS011;58152;49.202;18.744;2023-05-10T07:44:16;1.52;;;1.40;;
70588;SDS011;58152;49.202;18.744;2023-05-10T07:46:44;1.98;;;1.70;;
70588;SDS011;58152;49.202;18.744;2023-05-10T07:49:09;1.95;;;1.60;;
70588;SDS011;58152;49.202;18.744;2023-05-10T07:51:34;1.85;;;1.60;;
70588;SDS011;58152;49.202;18.744;2023-05-10T07:54:00;2.47;;;1.40;;
70588;SDS011;58152;49.202;18.744;2023-05-10T07:56:28;1.50;;;1.33;;
70588;SDS011;58152;49.202;18.744;2023-05-10T07:58:55;1.63;;;1.52;;
70588;SDS011;58152;49.202;18.744;2023-05-10T08:01:21;1.92;;;1.70;;
70588;SDS011;58152;49.202;18.744;2023-05-10T08:03:47;1.77;;;1.58;;
70588;SDS011;58152;49.202;18.744;2023-05-10T08:06:14;2.05;;;1.85;;
70588;SDS011;58152;49.202;18.744;2023-05-10T08:08:40;1.73;;;1.33;;
70588;SDS011;58152;49.202;18.744;2023-05-10T08:11:06;1.35;;;1.25;;
70588;SDS011;58152;49.202;18.744;2023-05-10T08:13:32;2.25;;;1.65;;
70588;SDS011;58152;49.202;18.744;2023-05-10T08:15:57;2.03;;;1.75;;
70588;SDS011;58152;49.202;18.744;2023-05-10T08:18:23;1.90;;;1.80;;
70588;SDS011;58152;49.202;18.744;2023-05-10T08:20:48;3.85;;;1.95;;
70588;SDS011;58152;49.202;18.744;2023-05-10T08:23:14;2.60;;;1.33;;
70588;SDS011;58152;49.202;18.744;2023-05-10T08:25:39;3.63;;;1.70;;
70588;SDS011;58152;49.202;18.744;2023-05-10T08:28:05;1.65;;;1.42;;
70588;SDS011;58152;49.202;18.744;2023-05-10T08:30:30;2.42;;;1.80;;
70588;SDS011;58152;49.202;18.744;2023-05-10T08:32:56;1.85;;;1.75;;
70588;SDS011;58152;49.202;18.744;2023-05-10T08:35:21;1.33;;;1.23;;
70588;SDS011;58152;49.202;18.744;2023-05-10T08:37:46;1.77;;;1.55;;
70588;SDS011;58152;49.202;18.744;2023-05-10T08:40:12;1.30;;;1.20;;
70588;SDS011;58152;49.202;18.744;2023-05-10T08:42:39;1.73;;;1.63;;
70588;SDS011;58152;49.202;18.744;2023-05-10T08:45:08;2.92;;;1.30;;
70588;SDS011;58152;49.202;18.744;2023-05-10T08:47:36;1.38;;;1.27;;
70588;SDS011;58152;49.202;18.744;2023-05-10T08:50:03;1.77;;;1.35;;
70588;SDS011;58152;49.202;18.744;2023-05-10T08:52:29;1.40;;;1.30;;
70588;SDS011;58152;49.202;18.744;2023-05-10T08:54:56;1.70;;;1.48;;
70588;SDS011;58152;49.202;18.744;2023-05-10T08:57:23;1.65;;;1.30;;
70588;SDS011;58152;49.202;18.744;2023-05-10T08:59:49;1.98;;;1.38;;
70588;SDS011;58152;49.202;18.744;2023-05-10T09:02:14;1.48;;;1.38;;
70588;SDS011;58152;49.202;18.744;2023-05-10T09:04:41;3.35;;;1.38;;
70588;SDS011;58152;49.202;18.744;2023-05-10T09:07:07;1.88;;;1.40;;
70588;SDS011;58152;49.202;18.744;2023-05-10T09:09:32;1.60;;;1.05;;
70588;SDS011;58152;49.202;18.744;2023-05-10T09:11:58;1.35;;;1.20;;
70588;SDS011;58152;49.202;18.744;2023-05-10T09:14:24;1.20;;;1.10;;
70588;SDS011;58152;49.202;18.744;2023-05-10T09:16:50;2.45;;;1.40;;
70588;SDS011;58152;49.202;18.744;2023-05-10T09:19:15;1.42;;;1.23;;
70588;SDS011;58152;49.202;18.744;2023-05-10T09:21:41;1.73;;;1.50;;
70588;SDS011;58152;49.202;18.744;2023-05-10T09:24:07;2.08;;;1.13;;
70588;SDS011;58152;49.202;18.744;2023-05-10T09:26:33;1.25;;;1.15;;
70588;SDS011;58152;49.202;18.744;2023-05-10T09:29:01;1.30;;;1.10;;
70588;SDS011;58152;49.202;18.744;2023-05-10T09:31:44;2.67;;;1.50;;
70588;SDS011;58152;49.202;18.744;2023-05-10T09:34:11;1.30;;;1.20;;
70588;SDS011;58152;49.202;18.744;2023-05-10T09:36:50;3.50;;;2.17;;
70588;SDS011;58152;49.202;18.744;2023-05-10T09:39:19;1.80;;;1.50;;
70588;SDS011;58152;49.202;18.744;2023-05-10T09:41:45;1.13;;;1.05;;
70588;SDS011;58152;49.202;18.744;2023-05-10T09:44:12;1.33;;;1.20;;
70588;SDS011;58152;49.202;18.744;2023-05-10T09:46:42;1.27;;;0.93;;
70588;SDS011;58152;49.202;18.744;2023-05-10T09:49:08;1.45;;;1.35;;
70588;SDS011;58152;49.202;18.744;2023-05-10T09:51:34;1.45;;;1.35;;
70588;SDS011;58152;49.202;18.744;2023-05-10T09:56:38;6.80;;;1.83;;
70588;SDS011;58152;49.202;18.744;2023-05-10T09:59:05;2.20;;;1.40;;
70588;SDS011;58152;49.202;18.744;2023-05-10T10:01:33;1.10;;;1.00;;
70588;SDS011;58152;49.202;18.744;2023-05-10T10:04:02;1.85;;;1.75;;
70588;SDS011;58152;49.202;18.744;2023-05-10T10:06:35;1.10;;;1.00;;
70588;SDS011;58152;49.202;18.744;2023-05-10T10:09:01;1.83;;;1.50;;
70588;SDS011;58152;49.202;18.744;2023-05-10T10:11:27;2.10;;;1.90;;
70588;SDS011;58152;49.202;18.744;2023-05-10T10:13:53;2.47;;;2.05;;
70588;SDS011;58152;49.202;18.744;2023-05-10T10:16:19;1.30;;;1.20;;
70588;SDS011;58152;49.202;18.744;2023-05-10T10:18:45;2.45;;;1.23;;
70588;SDS011;58152;49.202;18.744;2023-05-10T10:21:13;1.40;;;1.30;;
70588;SDS011;58152;49.202;18.744;2023-05-10T10:23:38;2.15;;;1.20;;
70588;SDS011;58152;49.202;18.744;2023-05-10T10:26:04;0.90;;;0.90;;
70588;SDS011;58152;49.202;18.744;2023-05-10T10:30:55;1.10;;;1.00;;
70588;SDS011;58152;49.202;18.744;2023-05-10T10:33:51;1.90;;;1.45;;
70588;SDS011;58152;49.202;18.744;2023-05-10T10:36:28;1.20;;;1.10;;
70588;SDS011;58152;49.202;18.744;2023-05-10T10:38:59;2.63;;;1.20;;
70588;SDS011;58152;49.202;18.744;2023-05-10T10:47:09;1.15;;;1.05;;
70588;SDS011;58152;49.202;18.744;2023-05-10T10:55:00;4.15;;;1.80;;
70588;SDS011;58152;49.202;18.744;2023-05-10T11:08:00;4.55;;;2.20;;
70588;SDS011;58152;49.202;18.744;2023-05-10T11:10:51;1.23;;;0.70;;
70588;SDS011;58152;49.202;18.744;2023-05-10T11:13:45;0.98;;;0.93;;
70588;SDS011;58152;49.202;18.744;2023-05-10T11:21:26;1.23;;;0.80;;
70588;SDS011;58152;49.202;18.744;2023-05-10T11:23:54;1.23;;;1.13;;
70588;SDS011;58152;49.202;18.744;2023-05-10T11:26:21;1.45;;;0.93;;
70588;SDS011;58152;49.202;18.744;2023-05-10T11:28:50;0.93;;;0.70;;
70588;SDS011;58152;49.202;18.744;2023-05-10T11:31:17;5.68;;;1.08;;
70588;SDS011;58152;49.202;18.744;2023-05-10T11:36:15;1.30;;;0.80;;
70588;SDS011;58152;49.202;18.744;2023-05-10T11:38:51;1.30;;;0.70;;
70588;SDS011;58152;49.202;18.744;2023-05-10T11:41:17;0.70;;;0.63;;
70588;SDS011;58152;49.202;18.744;2023-05-10T11:43:46;1.00;;;0.80;;
70588;SDS011;58152;49.202;18.744;2023-05-10T11:46:14;0.90;;;0.70;;
70588;SDS011;58152;49.202;18.744;2023-05-10T11:48:41;1.42;;;0.77;;
70588;SDS011;58152;49.202;18.744;2023-05-10T11:51:07;1.20;;;0.70;;
70588;SDS011;58152;49.202;18.744;2023-05-10T11:53:33;0.80;;;0.70;;
70588;SDS011;58152;49.202;18.744;2023-05-10T11:56:02;1.55;;;0.70;;
70588;SDS011;58152;49.202;18.744;2023-05-10T11:58:35;2.05;;;1.13;;
70588;SDS011;58152;49.202;18.744;2023-05-10T12:01:02;0.80;;;0.80;;
70588;SDS011;58152;49.202;18.744;2023-05-10T12:03:28;0.60;;;0.60;;
70588;SDS011;58152;49.202;18.744;2023-05-10T12:05:55;0.90;;;0.60;;
70588;SDS011;58152;49.202;18.744;2023-05-10T12:08:25;1.35;;;0.70;;
70588;SDS011;58152;49.202;18.744;2023-05-10T12:10:53;0.70;;;0.57;;
70588;SDS011;58152;49.202;18.744;2023-05-10T12:13:28;2.97;;;0.68;;
70588;SDS011;58152;49.202;18.744;2023-05-10T12:15:57;0.65;;;0.55;;
70588;SDS011;58152;49.202;18.744;2023-05-10T12:18:30;0.73;;;0.60;;
70588;SDS011;58152;49.202;18.744;2023-05-10T12:20:55;0.60;;;0.57;;
70588;SDS011;58152;49.202;18.744;2023-05-10T12:23:30;0.70;;;0.70;;
70588;SDS011;58152;49.202;18.744;2023-05-10T12:26:02;1.63;;;1.00;;
70588;SDS011;58152;49.202;18.744;2023-05-10T12:28:31;1.25;;;1.00;;
70588;SDS011;58152;49.202;18.744;2023-05-10T12:30:58;0.55;;;0.55;;
70588;SDS011;58152;49.202;18.744;2023-05-10T12:33:24;0.82;;;0.52;;
70588;SDS011;58152;49.202;18.744;2023-05-10T12:35:53;2.35;;;0.60;;
70588;SDS011;58152;49.202;18.744;2023-05-10T12:38:28;0.88;;;0.60;;
70588;SDS011;58152;49.202;18.744;2023-05-10T12:41:00;1.20;;;0.50;;
70588;SDS011;58152;49.202;18.744;2023-05-10T12:43:27;1.33;;;0.70;;
70588;SDS011;58152;49.202;18.744;2023-05-10T12:45:53;2.92;;;0.70;;
70588;SDS011;58152;49.202;18.744;2023-05-10T12:48:19;0.60;;;0.50;;
70588;SDS011;58152;49.202;18.744;2023-05-10T12:50:45;1.00;;;0.68;;
70588;SDS011;58152;49.202;18.744;2023-05-10T12:53:10;1.00;;;0.70;;
70588;SDS011;58152;49.202;18.744;2023-05-10T12:55:36;1.45;;;0.65;;
70588;SDS011;58152;49.202;18.744;2023-05-10T12:58:01;2.53;;;0.60;;
70588;SDS011;58152;49.202;18.744;2023-05-10T13:00:27;3.50;;;0.77;;
70588;SDS011;58152;49.202;18.744;2023-05-10T13:02:52;0.93;;;0.65;;
70588;SDS011;58152;49.202;18.744;2023-05-10T13:05:18;1.92;;;0.65;;
70588;SDS011;58152;49.202;18.744;2023-05-10T13:07:43;1.23;;;1.00;;
70588;SDS011;58152;49.202;18.744;2023-05-10T13:10:09;1.42;;;1.15;;
70588;SDS011;58152;49.202;18.744;2023-05-10T13:12:35;0.82;;;0.60;;
70588;SDS011;58152;49.202;18.744;2023-05-10T13:15:00;0.65;;;0.50;;
70588;SDS011;58152;49.202;18.744;2023-05-10T13:17:26;0.43;;;0.43;;
70588;SDS011;58152;49.202;18.744;2023-05-10T13:19:51;1.02;;;0.60;;
70588;SDS011;58152;49.202;18.744;2023-05-10T13:22:17;2.05;;;0.50;;
70588;SDS011;58152;49.202;18.744;2023-05-10T13:24:42;0.82;;;0.55;;
70588;SDS011;58152;49.202;18.744;2023-05-10T13:27:08;0.70;;;0.50;;
70588;SDS011;58152;49.202;18.744;2023-05-10T13:29:36;1.95;;;0.60;;
70588;SDS011;58152;49.202;18.744;2023-05-10T13:32:06;0.85;;;0.50;;
70588;SDS011;58152;49.202;18.744;2023-05-10T13:34:38;1.00;;;0.45;;
70588;SDS011;58152;49.202;18.744;2023-05-10T13:37:03;1.60;;;1.10;;
70588;SDS011;58152;49.202;18.744;2023-05-10T13:39:29;5.03;;;3.05;;
70588;SDS011;58152;49.202;18.744;2023-05-10T13:41:58;1.80;;;1.20;;
70588;SDS011;58152;49.202;18.744;2023-05-10T13:44:23;2.40;;;0.77;;
70588;SDS011;58152;49.202;18.744;2023-05-10T13:46:51;1.88;;;0.85;;
70588;SDS011;58152;49.202;18.744;2023-05-10T13:49:17;0.50;;;0.40;;
70588;SDS011;58152;49.202;18.744;2023-05-10T13:51:45;0.55;;;0.55;;
70588;SDS011;58152;49.202;18.744;2023-05-10T13:54:14;1.35;;;0.60;;
70588;SDS011;58152;49.202;18.744;2023-05-10T13:56:39;1.42;;;0.70;;
70588;SDS011;58152;49.202;18.744;2023-05-10T13:59:07;0.82;;;0.60;;
70588;SDS011;58152;49.202;18.744;2023-05-10T14:01:32;0.75;;;0.60;;
70588;SDS011;58152;49.202;18.744;2023-05-10T14:03:59;0.60;;;0.60;;
70588;SDS011;58152;49.202;18.744;2023-05-10T14:06:24;0.80;;;0.65;;
70588;SDS011;58152;49.202;18.744;2023-05-10T14:08:50;0.70;;;0.50;;
70588;SDS011;58152;49.202;18.744;2023-05-10T14:11:21;1.17;;;0.80;;
70588;SDS011;58152;49.202;18.744;2023-05-10T14:13:49;1.10;;;0.57;;
70588;SDS011;58152;49.202;18.744;2023-05-10T14:16:15;0.50;;;0.50;;
70588;SDS011;58152;49.202;18.744;2023-05-10T14:18:40;1.80;;;0.80;;
70588;SDS011;58152;49.202;18.744;2023-05-10T14:21:06;1.05;;;0.70;;
70588;SDS011;58152;49.202;18.744;2023-05-10T14:23:31;1.00;;;0.90;;
70588;SDS011;58152;49.202;18.744;2023-05-10T14:25:57;0.85;;;0.70;;
70588;SDS011;58152;49.202;18.744;2023-05-10T14:28:22;0.95;;;0.77;;
70588;SDS011;58152;49.202;18.744;2023-05-10T14:30:48;0.82;;;0.73;;
70588;SDS011;58152;49.202;18.744;2023-05-10T14:33:15;0.50;;;0.50;;
70588;SDS011;58152;49.202;18.744;2023-05-10T14:35:41;1.20;;;0.63;;
70588;SDS011;58152;49.202;18.744;2023-05-10T14:38:07;1.10;;;0.80;;
70588;SDS011;58152;49.202;18.744;2023-05-10T14:40:40;2.28;;;0.80;;
70588;SDS011;58152;49.202;18.744;2023-05-10T14:43:05;0.80;;;0.80;;
70588;SDS011;58152;49.202;18.744;2023-05-10T14:45:31;2.00;;;0.63;;
70588;SDS011;58152;49.202;18.744;2023-05-10T14:47:56;1.17;;;0.73;;
70588;SDS011;58152;49.202;18.744;2023-05-10T14:50:22;1.13;;;1.00;;
70588;SDS011;58152;49.202;18.744;2023-05-10T14:52:48;1.75;;;0.80;;
70588;SDS011;58152;49.202;18.744;2023-05-10T14:55:14;0.73;;;0.73;;
70588;SDS011;58152;49.202;18.744;2023-05-10T14:57:40;1.67;;;0.70;;
70588;SDS011;58152;49.202;18.744;2023-05-10T15:00:06;0.75;;;0.63;;
70588;SDS011;58152;49.202;18.744;2023-05-10T15:02:32;1.10;;;0.70;;
70588;SDS011;58152;49.202;18.744;2023-05-10T15:04:57;2.25;;;0.73;;
70588;SDS011;58152;49.202;18.744;2023-05-10T15:07:23;1.50;;;0.80;;
70588;SDS011;58152;49.202;18.744;2023-05-10T15:09:52;1.27;;;0.90;;
70588;SDS011;58152;49.202;18.744;2023-05-10T15:12:18;1.67;;;0.98;;
70588;SDS011;58152;49.202;18.744;2023-05-10T15:14:44;1.02;;;0.57;;
70588;SDS011;58152;49.202;18.744;2023-05-10T15:17:09;0.93;;;0.60;;
70588;SDS011;58152;49.202;18.744;2023-05-10T15:19:35;0.55;;;0.50;;
70588;SDS011;58152;49.202;18.744;2023-05-10T15:22:01;0.77;;;0.75;;
70588;SDS011;58152;49.202;18.744;2023-05-10T15:24:27;0.77;;;0.70;;
70588;SDS011;58152;49.202;18.744;2023-05-10T15:26:52;0.90;;;0.60;;
70588;SDS011;58152;49.202;18.744;2023-05-10T15:29:18;0.77;;;0.60;;
70588;SDS011;58152;49.202;18.744;2023-05-10T15:31:45;0.90;;;0.68;;
70588;SDS011;58152;49.202;18.744;2023-05-10T15:34:14;1.55;;;0.63;;